Asiatic Wave — 9V8790 — position and weather

sailwx.info

Track history (hours):
 
Tides and Currents Weather Stations Pressure Air Temp Water Temp Dewpoint Dewpoint Depression Visibility Wind Speed Wind Dir Waves Ship Positions

Asiatic Wave

Last reported at 2016-Aug-25 19:12 UTC. Time now 2016-Aug-27 15:06 UTC.
Position N 34°34' E 134°49'.

Length 150 m; draft 7.9 m.

Type: Ship (hazmat cat A). MMSI: 564211000.

Date/timePositionNaut miles runAvg speedWind from/ knotsBaromVisibWave heightAir tempDewpointWater temp
2016-Aug-25 19:12N 34°34' E 134°49'811.8
2016-Aug-25 18:33N 34°37' E 134°58'1312.9
2016-Aug-25 17:33N 34°36' E 135°13'4 3.7
2016-Aug-25 16:30N 34°40' E 135°14'0 0.0
2016-Aug-25 15:29N 34°40' E 135°14'0 0.0
2016-Aug-25 14:29N 34°40' E 135°14'0 0.0
2016-Aug-25 13:28N 34°40' E 135°14'0 0.0
2016-Aug-25 12:28N 34°40' E 135°14'0 0.0
2016-Aug-25 11:34N 34°40' E 135°14'0 0.0
2016-Aug-25 10:33N 34°40' E 135°14'0 0.1
2016-Aug-25 09:34N 34°40' E 135°14'7 7.5
2016-Aug-25 08:34N 34°38' E 135°23'2 2.0
2016-Aug-25 07:22N 34°39' E 135°26'0 0.0
2016-Aug-25 06:33N 34°39' E 135°26'0 0.0
2016-Aug-25 04:32N 34°39' E 135°26'0 0.0
2016-Aug-25 03:32N 34°39' E 135°26'0 0.0
2016-Aug-25 02:31N 34°39' E 135°26'0 0.0
2016-Aug-25 01:31N 34°39' E 135°26'0 0.0
2016-Aug-25 00:31N 34°39' E 135°26'0 0.0
2016-Aug-24 23:30N 34°39' E 135°26'0 0.0
2016-Aug-24 22:33N 34°39' E 135°26'5 5.0
2016-Aug-24 21:33N 34°36' E 135°20'9 9.2
2016-Aug-24 20:33N 34°35' E 135°09'1212.1
2016-Aug-24 19:34N 34°36' E 134°55'68913.8
2016-Aug-22 17:29N 31°17' E 121°49'1112.3
2016-Aug-22 16:33N 31°22' E 121°37'1 0.7
2016-Aug-22 15:31N 31°22' E 121°36'0 0.0
2016-Aug-22 14:22N 31°22' E 121°36'0 0.0
2016-Aug-22 13:30N 31°22' E 121°36'0 0.0
2016-Aug-22 12:30N 31°22' E 121°36'0 0.0
2016-Aug-22 11:30N 31°22' E 121°36'0 0.0
2016-Aug-22 10:29N 31°22' E 121°36'0 0.0
2016-Aug-22 09:13N 31°22' E 121°36'0 0.0
2016-Aug-22 08:28N 31°22' E 121°36'0 0.0
2016-Aug-22 07:28N 31°22' E 121°36'0 0.0
2016-Aug-22 06:04N 31°22' E 121°36'1 1.4
2016-Aug-22 05:33N 31°22' E 121°36'1311.4
2016-Aug-22 04:27N 31°14' E 121°47'  
2016-Aug-19 10:03N 34°54' E 139°22'918.8
2016-Aug-19 09:33N 34°59' E 139°31'1817.7
2016-Aug-19 08:34N 35°12' E 139°46'1212.3
2016-Aug-19 07:33N 35°24' E 139°42'3 3.3
2016-Aug-19 06:33N 35°27' E 139°41'0 0.0
2016-Aug-19 05:33N 35°27' E 139°41'0 0.0
2016-Aug-19 04:33N 35°27' E 139°41'0 0.1
2016-Aug-19 03:33N 35°27' E 139°41'0 0.1
2016-Aug-19 02:33N 35°27' E 139°41'9 9.3
2016-Aug-19 01:33N 35°31' E 139°51'6 5.6
2016-Aug-19 00:33N 35°36' E 139°48'0 0.0
2016-Aug-18 23:33N 35°36' E 139°48'0 0.0
2016-Aug-18 22:33N 35°36' E 139°48'0 0.0
2016-Aug-18 21:33N 35°36' E 139°48'0 0.0
2016-Aug-18 20:34N 35°36' E 139°48'0 0.0
2016-Aug-18 19:33N 35°36' E 139°48'0 0.0
2016-Aug-18 18:33N 35°36' E 139°48'0 0.0
2016-Aug-18 17:33N 35°36' E 139°48'0 0.0
2016-Aug-18 16:33N 35°36' E 139°48'0 0.0
2016-Aug-18 15:33N 35°36' E 139°48'0 0.0
2016-Aug-18 14:33N 35°36' E 139°48'0 0.0
2016-Aug-18 13:33N 35°36' E 139°48'0 0.0
2016-Aug-18 12:33N 35°36' E 139°48'0 0.0
2016-Aug-18 11:33N 35°36' E 139°48'0 0.0
2016-Aug-18 10:33N 35°36' E 139°48'0 0.0
2016-Aug-18 09:33N 35°36' E 139°48'0 0.0
2016-Aug-18 08:33N 35°36' E 139°48'5 4.6
2016-Aug-18 07:34N 35°33' E 139°51'1414.0
2016-Aug-18 06:33N 35°20' E 139°44'1313.4
2016-Aug-18 05:34N 35°07' E 139°43'  
Track history (hours):
 
Tides and Currents Weather Stations Pressure Air Temp Water Temp Dewpoint Dewpoint Depression Visibility Wind Speed Wind Dir Waves Ship Positions

Asiatic Wave

Last reported at 2016-Aug-25 19:12 UTC. Time now 2016-Aug-27 15:06 UTC.
Position N 34°34' E 134°49'.

Length 150 m; draft 7.9 m.

Type: Ship (hazmat cat A). MMSI: 564211000.

Date/timePositionNaut miles runAvg speedWind from/ knotsBaromVisibWave heightAir tempDewpointWater temp
2016-Aug-25 19:12N 34°34' E 134°49'811.8
2016-Aug-25 18:33N 34°37' E 134°58'1312.9
2016-Aug-25 17:33N 34°36' E 135°13'4 3.7
2016-Aug-25 16:30N 34°40' E 135°14'0 0.0
2016-Aug-25 15:29N 34°40' E 135°14'0 0.0
2016-Aug-25 14:29N 34°40' E 135°14'0 0.0
2016-Aug-25 13:28N 34°40' E 135°14'0 0.0
2016-Aug-25 12:28N 34°40' E 135°14'0 0.0
2016-Aug-25 11:34N 34°40' E 135°14'0 0.0
2016-Aug-25 10:33N 34°40' E 135°14'0 0.1
2016-Aug-25 09:34N 34°40' E 135°14'7 7.5
2016-Aug-25 08:34N 34°38' E 135°23'2 2.0
2016-Aug-25 07:22N 34°39' E 135°26'0 0.0
2016-Aug-25 06:33N 34°39' E 135°26'0 0.0
2016-Aug-25 04:32N 34°39' E 135°26'0 0.0
2016-Aug-25 03:32N 34°39' E 135°26'0 0.0
2016-Aug-25 02:31N 34°39' E 135°26'0 0.0
2016-Aug-25 01:31N 34°39' E 135°26'0 0.0
2016-Aug-25 00:31N 34°39' E 135°26'0 0.0
2016-Aug-24 23:30N 34°39' E 135°26'0 0.0
2016-Aug-24 22:33N 34°39' E 135°26'5 5.0
2016-Aug-24 21:33N 34°36' E 135°20'9 9.2
2016-Aug-24 20:33N 34°35' E 135°09'1212.1
2016-Aug-24 19:34N 34°36' E 134°55'68913.8
2016-Aug-22 17:29N 31°17' E 121°49'1112.3
2016-Aug-22 16:33N 31°22' E 121°37'1 0.7
2016-Aug-22 15:31N 31°22' E 121°36'0 0.0
2016-Aug-22 14:22N 31°22' E 121°36'0 0.0
2016-Aug-22 13:30N 31°22' E 121°36'0 0.0
2016-Aug-22 12:30N 31°22' E 121°36'0 0.0
2016-Aug-22 11:30N 31°22' E 121°36'0 0.0
2016-Aug-22 10:29N 31°22' E 121°36'0 0.0
2016-Aug-22 09:13N 31°22' E 121°36'0 0.0
2016-Aug-22 08:28N 31°22' E 121°36'0 0.0
2016-Aug-22 07:28N 31°22' E 121°36'0 0.0
2016-Aug-22 06:04N 31°22' E 121°36'1 1.4
2016-Aug-22 05:33N 31°22' E 121°36'1311.4
2016-Aug-22 04:27N 31°14' E 121°47'  
2016-Aug-19 10:03N 34°54' E 139°22'918.8
2016-Aug-19 09:33N 34°59' E 139°31'1817.7
2016-Aug-19 08:34N 35°12' E 139°46'1212.3
2016-Aug-19 07:33N 35°24' E 139°42'3 3.3
2016-Aug-19 06:33N 35°27' E 139°41'0 0.0
2016-Aug-19 05:33N 35°27' E 139°41'0 0.0
2016-Aug-19 04:33N 35°27' E 139°41'0 0.1
2016-Aug-19 03:33N 35°27' E 139°41'0 0.1
2016-Aug-19 02:33N 35°27' E 139°41'9 9.3
2016-Aug-19 01:33N 35°31' E 139°51'6 5.6
2016-Aug-19 00:33N 35°36' E 139°48'0 0.0
2016-Aug-18 23:33N 35°36' E 139°48'0 0.0
2016-Aug-18 22:33N 35°36' E 139°48'0 0.0
2016-Aug-18 21:33N 35°36' E 139°48'0 0.0
2016-Aug-18 20:34N 35°36' E 139°48'0 0.0
2016-Aug-18 19:33N 35°36' E 139°48'0 0.0
2016-Aug-18 18:33N 35°36' E 139°48'0 0.0
2016-Aug-18 17:33N 35°36' E 139°48'0 0.0
2016-Aug-18 16:33N 35°36' E 139°48'0 0.0
2016-Aug-18 15:33N 35°36' E 139°48'0 0.0
2016-Aug-18 14:33N 35°36' E 139°48'0 0.0
2016-Aug-18 13:33N 35°36' E 139°48'0 0.0
2016-Aug-18 12:33N 35°36' E 139°48'0 0.0
2016-Aug-18 11:33N 35°36' E 139°48'0 0.0
2016-Aug-18 10:33N 35°36' E 139°48'0 0.0
2016-Aug-18 09:33N 35°36' E 139°48'0 0.0
2016-Aug-18 08:33N 35°36' E 139°48'5 4.6
2016-Aug-18 07:34N 35°33' E 139°51'1414.0
2016-Aug-18 06:33N 35°20' E 139°44'1313.4
2016-Aug-18 05:34N 35°07' E 139°43'  

Dump ship's entire track history